Time;durP1;ratioP1;P1;durP2;ratioP2;P2;SDS_P1;SDS_P2;PMS_P1;PMS_P2;Temp;Humidity;BMP_temperature;BMP_pressure;BME280_temperature;BME280_humidity;BME280_pressure;Samples;Min_cycle;Max_cycle;Signal;HPM_P1;HPM_P2
2023/02/15 00:01:45;;;;;;;19.95;13.68;;;;;;;1.21;72.95;97973.56;5076658;28;20040;-75
2023/02/15 00:04:14;;;;;;;23.33;13.82;;;;;;;1.17;73.13;97978.06;5076516;28;20059;-76
2023/02/15 00:06:42;;;;;;;21.17;13.25;;;;;;;1.14;73.14;97980.81;5111224;22;20109;-79
2023/02/15 00:09:12;;;;;;;20.90;13.73;;;;;;;1.13;73.29;97986.84;5097422;28;20040;-79
2023/02/15 00:11:42;;;;;;;22.30;13.68;;;;;;;1.12;73.33;97980.06;5097386;28;20391;-79
2023/02/15 00:14:15;;;;;;;23.65;13.98;;;;;;;1.09;73.26;97979.41;5096999;28;20052;-79
2023/02/15 00:16:54;;;;;;;22.77;14.40;;;;;;;1.08;73.42;97978.59;5114182;28;20058;-80
2023/02/15 00:19:26;;;;;;;22.40;14.43;;;;;;;1.09;73.44;97977.66;5122335;28;20065;-80
2023/02/15 00:28:52;;;;;;;22.45;12.80;;;;;;;1.09;73.05;97966.56;5042217;28;20103;-82
2023/02/15 00:31:20;;;;;;;19.73;12.63;;;;;;;1.10;73.03;97960.53;5039360;28;20069;-81
2023/02/15 00:33:49;;;;;;;22.83;13.32;;;;;;;1.06;73.22;97964.19;5037358;28;20067;-84
2023/02/15 00:36:17;;;;;;;18.80;12.95;;;;;;;1.02;73.21;97963.53;5037099;28;20053;-81
2023/02/15 00:38:44;;;;;;;24.05;15.80;;;;;;;0.98;73.48;97964.63;5036344;28;20551;-81
2023/02/15 00:41:12;;;;;;;21.17;12.45;;;;;;;0.98;73.49;97959.47;5063857;22;20045;-75
2023/02/15 00:43:39;;;;;;;26.85;14.23;;;;;;;1.00;73.46;97961.03;5075776;28;20059;-75
2023/02/15 00:46:07;;;;;;;21.17;13.50;;;;;;;0.99;74.00;97945.72;5075597;28;20055;-75
2023/02/15 00:48:35;;;;;;;23.55;14.48;;;;;;;1.02;74.01;97948.09;5075038;28;20131;-75
2023/02/15 00:51:04;;;;;;;20.08;13.95;;;;;;;1.06;73.74;97946.19;5075478;28;20131;-75
2023/02/15 00:53:32;;;;;;;21.70;13.50;;;;;;;1.09;73.88;97954.53;5075765;28;20080;-75
2023/02/15 00:55:59;;;;;;;18.70;11.57;;;;;;;1.16;73.92;97950.72;5075681;28;20063;-75
2023/02/15 00:58:27;;;;;;;20.33;12.15;;;;;;;1.23;73.84;97948.59;5073580;28;20078;-75
2023/02/15 01:00:55;;;;;;;21.67;13.63;;;;;;;1.26;73.55;97956.13;5075127;28;20048;-75
2023/02/15 01:03:22;;;;;;;26.15;13.95;;;;;;;1.31;73.37;97953.28;5074773;28;20530;-75
2023/02/15 01:05:51;;;;;;;21.80;13.55;;;;;;;1.33;73.19;97943.75;5075616;28;20076;-75
2023/02/15 01:08:20;;;;;;;22.10;14.63;;;;;;;1.34;73.06;97947.97;5074325;28;20044;-75
2023/02/15 01:10:47;;;;;;;18.45;12.77;;;;;;;1.39;73.04;97945.94;5075389;28;20404;-75
2023/02/15 01:13:16;;;;;;;18.70;12.65;;;;;;;1.46;73.29;97943.84;5075109;28;20056;-76
2023/02/15 01:15:44;;;;;;;20.08;13.73;;;;;;;1.47;72.96;97946.31;5075601;28;20425;-75
2023/02/15 01:18:12;;;;;;;22.77;13.93;;;;;;;1.50;72.79;97941.00;5074961;28;20052;-75
2023/02/15 01:20:41;;;;;;;20.45;13.40;;;;;;;1.53;73.60;97947.69;5075197;28;20131;-75
2023/02/15 01:23:09;;;;;;;21.20;12.88;;;;;;;1.57;73.12;97946.59;5075295;28;20135;-75
2023/02/15 01:25:38;;;;;;;17.60;12.43;;;;;;;1.61;72.84;97946.31;5074810;28;20498;-75
2023/02/15 01:28:05;;;;;;;16.40;11.80;;;;;;;1.58;72.07;97936.22;5074379;28;20076;-75
2023/02/15 01:30:33;;;;;;;19.45;13.38;;;;;;;1.53;72.39;97942.53;5075121;28;20506;-75
2023/02/15 01:33:01;;;;;;;19.17;12.82;;;;;;;1.47;72.53;97925.75;5074964;28;20136;-75
2023/02/15 01:35:29;;;;;;;18.25;12.63;;;;;;;1.42;72.46;97936.31;5075226;28;20131;-75
2023/02/15 01:37:57;;;;;;;20.73;12.65;;;;;;;1.39;72.33;97927.94;5074106;28;20048;-75
2023/02/15 01:40:26;;;;;;;21.65;12.52;;;;;;;1.35;72.04;97919.59;5074344;28;20048;-75
2023/02/15 01:42:56;;;;;;;21.95;12.65;;;;;;;1.30;72.54;97906.19;5074446;28;20128;-75
2023/02/15 01:45:26;;;;;;;21.20;13.35;;;;;;;1.30;72.50;97913.91;5074938;28;20047;-75
2023/02/15 01:47:59;;;;;;;19.35;12.00;;;;;;;1.27;72.35;97915.81;5073888;28;20047;-75
2023/02/15 01:50:29;;;;;;;;;;;;;;;1.27;72.84;97900.41;5074840;28;20052;-75
2023/02/15 01:53:02;;;;;;;20.90;12.05;;;;;;;1.24;72.29;97904.81;5074562;28;19944;-75
2023/02/15 01:55:34;;;;;;;19.00;12.32;;;;;;;1.23;72.44;97908.31;5074437;28;20059;-75
2023/02/15 01:58:04;;;;;;;18.60;12.98;;;;;;;1.22;72.63;97905.81;5074466;28;20491;-74
2023/02/15 02:00:33;;;;;;;19.17;11.98;;;;;;;1.20;72.50;97908.50;5075401;28;20048;-75
2023/02/15 02:03:01;;;;;;;20.85;12.73;;;;;;;1.23;72.67;97910.88;5075835;28;20127;-75
2023/02/15 02:05:30;;;;;;;19.67;12.75;;;;;;;1.30;72.58;97915.66;5074411;28;20044;-75
2023/02/15 02:08:01;;;;;;;20.17;12.45;;;;;;;1.34;72.93;97917.13;5073317;28;20049;-75
2023/02/15 02:10:29;;;;;;;17.88;12.13;;;;;;;1.39;72.56;97915.09;5073664;28;20513;-75
2023/02/15 02:13:00;;;;;;;17.85;12.82;;;;;;;1.42;72.30;97912.34;5074097;28;20571;-74
2023/02/15 02:15:41;;;;;;;18.85;12.10;;;;;;;1.41;72.67;97908.94;5074079;28;20049;-75
2023/02/15 02:18:23;;;;;;;18.13;11.80;;;;;;;1.43;72.05;97903.72;5073037;28;20045;-75
2023/02/15 02:21:17;;;;;;;18.27;12.70;;;;;;;1.42;72.67;97904.63;5073945;28;20135;-75
2023/02/15 02:23:59;;;;;;;19.80;11.38;;;;;;;1.40;72.50;97903.88;5073916;28;20135;-75
2023/02/15 02:27:05;;;;;;;17.25;12.25;;;;;;;1.38;72.32;97898.03;5073948;28;20048;-75
2023/02/15 02:30:04;;;;;;;20.50;12.30;;;;;;;1.33;71.87;97907.75;5073119;28;20044;-74
2023/02/15 02:33:19;;;;;;;19.30;12.32;;;;;;;1.25;71.93;97903.06;5073743;28;20055;-75
2023/02/15 02:35:58;;;;;;;24.23;12.70;;;;;;;1.18;72.48;97910.31;5058580;28;20418;-75
2023/02/15 02:38:34;;;;;;;18.67;12.93;;;;;;;1.15;71.96;97912.25;5072713;28;20046;-75
2023/02/15 02:41:13;;;;;;;20.98;12.93;;;;;;;1.11;72.37;97919.28;5073388;28;20052;-75
2023/02/15 02:43:48;;;;;;;18.48;12.27;;;;;;;1.07;72.34;97915.25;5074278;28;20297;-75
2023/02/15 02:46:20;;;;;;;23.20;13.55;;;;;;;1.01;72.09;97910.50;5074647;28;20048;-75
2023/02/15 02:48:49;;;;;;;18.70;12.57;;;;;;;0.97;72.51;97907.25;5093943;28;20067;-74
2023/02/15 02:51:21;;;;;;;20.23;11.65;;;;;;;1.00;72.28;97911.41;5095993;28;20335;-75
2023/02/15 02:53:52;;;;;;;19.98;12.50;;;;;;;1.00;72.56;97899.38;5096061;28;20092;-74
2023/02/15 02:56:27;;;;;;;18.20;13.05;;;;;;;1.00;72.52;97906.25;5096160;28;20048;-75
2023/02/15 02:59:00;;;;;;;20.73;13.15;;;;;;;0.97;72.32;97901.31;5095297;28;20051;-75
2023/02/15 03:01:33;;;;;;;18.95;12.55;;;;;;;0.96;72.40;97897.06;5078992;28;20044;-75
2023/02/15 03:04:04;;;;;;;;;;;;;;;0.98;72.82;97903.78;5074715;28;20052;-75
2023/02/15 03:06:40;;;;;;;17.63;12.18;;;;;;;0.90;72.62;97897.44;5074283;28;19924;-75
2023/02/15 03:09:15;;;;;;;21.98;13.02;;;;;;;0.85;72.26;97900.25;5073424;28;20127;-75
2023/02/15 03:11:45;;;;;;;19.85;12.80;;;;;;;0.79;72.69;97896.31;5073775;28;20052;-75
2023/02/15 03:14:15;;;;;;;19.83;12.95;;;;;;;0.72;72.76;97895.03;5079136;28;20048;-74
2023/02/15 03:16:47;;;;;;;20.83;13.05;;;;;;;0.67;72.85;97891.88;5094499;28;20039;-74
2023/02/15 03:19:18;;;;;;;20.77;12.98;;;;;;;0.64;72.71;97889.50;5086107;28;20414;-75
2023/02/15 03:21:57;;;;;;;18.02;12.90;;;;;;;0.62;73.16;97886.19;5073728;28;20067;-75
2023/02/15 03:24:30;;;;;;;22.25;13.10;;;;;;;0.60;73.00;97886.28;5074028;28;20082;-75
2023/02/15 03:26:57;;;;;;;17.98;12.52;;;;;;;0.61;72.80;97893.09;5073675;28;20135;-75
2023/02/15 03:29:27;;;;;;;18.98;12.23;;;;;;;0.59;73.08;97884.63;5073018;28;20045;-75
2023/02/15 03:31:58;;;;;;;19.73;11.77;;;;;;;0.58;72.75;97892.41;5073285;28;20059;-75
2023/02/15 03:34:27;;;;;;;18.30;12.35;;;;;;;0.56;72.76;97895.06;5073463;28;20067;-75
2023/02/15 03:37:04;;;;;;;18.80;12.27;;;;;;;0.51;73.09;97886.81;5073555;28;20052;-75
2023/02/15 03:39:39;;;;;;;18.58;12.30;;;;;;;0.49;72.84;97893.75;5072867;28;20135;-74
2023/02/15 03:42:13;;;;;;;18.20;12.65;;;;;;;0.52;73.16;97887.63;5073066;28;20048;-75
2023/02/15 03:44:50;;;;;;;18.85;12.25;;;;;;;0.55;73.25;97892.59;5073357;28;20070;-75
2023/02/15 03:47:21;;;;;;;19.48;12.23;;;;;;;0.59;72.87;97888.91;5073107;28;20139;-75
2023/02/15 03:49:53;;;;;;;19.20;12.73;;;;;;;0.56;72.93;97879.66;5072470;28;20410;-75
2023/02/15 03:52:25;;;;;;;17.50;12.13;;;;;;;0.58;73.22;97882.16;5072938;28;20040;-75
2023/02/15 03:54:54;;;;;;;18.30;12.73;;;;;;;0.59;72.98;97883.78;5073158;28;20049;-75
2023/02/15 04:03:10;;;;;;;19.08;12.75;;;;;;;0.61;72.89;97884.53;5072791;28;20044;-75
2023/02/15 04:05:39;;;;;;;20.70;12.43;;;;;;;0.60;72.44;97882.88;5072646;28;20053;-75
2023/02/15 04:08:08;;;;;;;15.95;11.10;;;;;;;0.59;73.04;97882.06;5071826;28;20044;-75
2023/02/15 04:10:54;;;;;;;16.40;11.55;;;;;;;0.62;73.02;97875.91;5072746;28;20058;-75
2023/02/15 04:13:23;;;;;;;21.00;12.90;;;;;;;0.65;72.77;97877.47;5072597;28;20045;-75
2023/02/15 04:16:03;;;;;;;18.65;12.77;;;;;;;0.63;72.86;97869.84;5071937;28;20132;-75
2023/02/15 04:26:52;;;;;;;18.63;13.02;;;;;;;0.65;72.78;97868.03;5072100;28;20131;-75
2023/02/15 04:29:20;;;;;;;18.15;12.23;;;;;;;0.67;72.54;97863.63;5071079;28;20076;-75
2023/02/15 04:31:48;;;;;;;16.67;12.52;;;;;;;0.63;72.41;97867.28;5072295;28;20067;-75
2023/02/15 04:34:16;;;;;;;15.65;11.80;;;;;;;0.60;72.60;97875.19;5074997;28;20468;-75
2023/02/15 04:36:44;;;;;;;17.10;12.48;;;;;;;0.58;72.77;97871.88;5076200;28;20142;-74
2023/02/15 04:39:14;;;;;;;18.42;12.85;;;;;;;0.54;72.80;97862.69;5075627;28;20071;-75
2023/02/15 04:41:42;;;;;;;18.13;12.73;;;;;;;0.52;72.49;97861.94;5075502;28;20074;-75
2023/02/15 04:44:10;;;;;;;21.83;13.60;;;;;;;0.49;72.68;97862.13;5076031;28;20041;-74
2023/02/15 04:46:38;;;;;;;20.20;13.90;;;;;;;0.46;72.25;97852.03;5075595;28;20136;-75
2023/02/15 04:49:05;;;;;;;17.77;12.52;;;;;;;0.38;72.44;97848.16;5075278;28;20290;-75
2023/02/15 04:51:33;;;;;;;16.48;11.30;;;;;;;0.30;72.41;97873.44;5075429;28;20498;-75
2023/02/15 04:54:00;;;;;;;19.40;12.20;;;;;;;0.24;72.65;97865.25;5075803;28;20111;-75
2023/02/15 04:56:29;;;;;;;18.17;11.82;;;;;;;0.17;72.91;97849.38;5075718;28;20054;-74
2023/02/15 04:58:57;;;;;;;18.52;11.95;;;;;;;0.16;72.91;97850.31;5074867;28;20071;-75
2023/02/15 05:01:25;;;;;;;14.35;10.52;;;;;;;0.18;73.29;97845.91;5075687;28;20060;-74
2023/02/15 05:03:52;;;;;;;18.25;11.63;;;;;;;0.16;73.09;97840.84;5075608;28;20055;-75
2023/02/15 05:06:20;;;;;;;17.02;11.45;;;;;;;0.13;73.18;97845.31;5075689;28;20076;-74
2023/02/15 05:08:47;;;;;;;16.75;11.52;;;;;;;0.07;72.94;97840.56;5074791;28;20048;-74
2023/02/15 05:11:15;;;;;;;25.25;12.00;;;;;;;0.01;73.00;97846.03;5075766;28;20052;-75
2023/02/15 05:13:44;;;;;;;16.27;11.13;;;;;;;-0.03;73.32;97843.63;5077096;28;20048;-74
2023/02/15 05:16:11;;;;;;;19.15;11.68;;;;;;;-0.01;73.29;97852.06;5076032;28;20130;-75
2023/02/15 05:18:39;;;;;;;16.60;10.13;;;;;;;0.05;73.39;97848.34;5075490;28;20132;-75
2023/02/15 05:21:06;;;;;;;16.23;10.43;;;;;;;0.10;73.00;97856.59;5075536;28;20044;-75
2023/02/15 05:23:34;;;;;;;16.55;10.70;;;;;;;0.13;73.25;97845.31;5074922;28;20399;-75
2023/02/15 05:28:48;;;;;;;17.27;11.68;;;;;;;0.13;73.07;97853.03;5074514;28;20056;-75
2023/02/15 05:31:18;;;;;;;17.48;11.98;;;;;;;0.13;72.72;97853.88;5075241;28;20135;-75
2023/02/15 05:33:46;;;;;;;17.48;11.45;;;;;;;0.14;72.77;97852.13;5075256;28;20044;-75
2023/02/15 05:36:14;;;;;;;15.73;10.95;;;;;;;0.14;73.04;97859.81;5074711;28;20506;-75
2023/02/15 05:38:42;;;;;;;19.10;11.50;;;;;;;0.10;72.83;97850.63;5074368;28;20045;-75
2023/02/15 05:41:10;;;;;;;16.48;12.07;;;;;;;0.10;73.25;97848.06;5074726;28;20134;-75
2023/02/15 05:43:39;;;;;;;18.48;12.00;;;;;;;0.08;72.86;97849.91;5074782;28;20127;-75
2023/02/15 05:46:08;;;;;;;19.88;11.23;;;;;;;0.02;72.99;97855.34;5075112;28;20506;-75
2023/02/15 05:48:36;;;;;;;20.33;12.05;;;;;;;-0.08;72.95;97844.78;5074018;28;20102;-75
2023/02/15 05:51:06;;;;;;;18.95;12.55;;;;;;;-0.23;73.27;97849.03;5073972;28;20040;-74
2023/02/15 05:53:36;;;;;;;19.52;11.30;;;;;;;-0.29;73.55;97859.59;5074357;28;20091;-75
2023/02/15 05:56:05;;;;;;;23.90;13.32;;;;;;;-0.29;73.79;97859.59;5075871;28;20110;-74
2023/02/15 05:58:35;;;;;;;20.02;12.43;;;;;;;-0.27;74.13;97857.78;5074548;28;20495;-75
2023/02/15 06:01:09;;;;;;;18.67;11.40;;;;;;;-0.22;74.35;97874.59;5074739;28;20045;-75
2023/02/15 06:03:37;;;;;;;21.83;12.77;;;;;;;-0.17;73.68;97873.53;5078142;28;20098;-75
2023/02/15 06:06:06;;;;;;;18.65;11.63;;;;;;;-0.14;73.94;97875.91;5087845;28;20083;-78
2023/02/15 06:08:35;;;;;;;21.77;12.95;;;;;;;-0.13;73.72;97873.25;5080914;28;20447;-77
2023/02/15 06:11:03;;;;;;;19.50;11.38;;;;;;;-0.14;73.93;97879.28;5074110;28;20040;-78
2023/02/15 06:13:31;;;;;;;18.52;12.10;;;;;;;-0.12;74.06;97879.22;5073268;28;20048;-77
2023/02/15 06:15:59;;;;;;;19.63;13.40;;;;;;;-0.11;73.89;97879.16;5071294;28;20044;-77
2023/02/15 06:18:29;;;;;;;18.77;11.85;;;;;;;-0.15;73.81;97872.53;5072393;28;20135;-77
2023/02/15 06:20:56;;;;;;;19.75;12.57;;;;;;;-0.21;73.75;97875.41;5074964;28;20045;-78
2023/02/15 06:23:24;;;;;;;17.92;12.25;;;;;;;-0.28;73.77;97880.03;5074077;28;20426;-76
2023/02/15 06:25:51;;;;;;;19.50;12.35;;;;;;;-0.32;74.07;97877.72;5073377;28;20407;-77
2023/02/15 06:28:19;;;;;;;20.00;13.10;;;;;;;-0.39;74.38;97876.38;5072994;28;20120;-77
2023/02/15 06:30:47;;;;;;;20.98;11.88;;;;;;;-0.45;74.37;97870.69;5073349;28;20418;-76
2023/02/15 06:33:14;;;;;;;19.10;12.52;;;;;;;-0.46;74.35;97879.31;5073787;28;20052;-77
2023/02/15 06:35:43;;;;;;;18.20;11.82;;;;;;;-0.45;74.67;97880.13;5073640;28;20044;-76
2023/02/15 06:38:11;;;;;;;17.83;12.02;;;;;;;-0.43;74.64;97884.25;5072485;28;20136;-78
2023/02/15 06:40:40;;;;;;;20.17;12.57;;;;;;;-0.39;74.82;97873.81;5073951;28;20048;-77
2023/02/15 06:43:08;;;;;;;17.35;11.93;;;;;;;-0.34;74.44;97882.13;5137115;22;20050;-83
2023/02/15 06:45:36;;;;;;;21.40;12.10;;;;;;;-0.35;74.40;97883.84;5114559;28;20043;-82
2023/02/15 06:48:06;;;;;;;17.42;11.63;;;;;;;-0.35;74.58;97881.28;5111750;27;20425;-81
2023/02/15 06:50:34;;;;;;;18.05;11.80;;;;;;;-0.35;74.42;97883.00;5112232;28;20040;-82
2023/02/15 06:53:03;;;;;;;17.52;11.50;;;;;;;-0.36;74.40;97884.75;5125869;27;20057;-81
2023/02/15 06:55:31;;;;;;;19.17;12.05;;;;;;;-0.36;74.53;97876.25;5130605;27;20054;-80
2023/02/15 06:57:58;;;;;;;20.08;11.38;;;;;;;-0.35;74.62;97883.00;5125006;27;20039;-78
2023/02/15 07:00:26;;;;;;;18.52;11.57;;;;;;;-0.33;74.67;97887.16;5122809;27;20050;-81
2023/02/15 07:02:56;;;;;;;17.55;11.02;;;;;;;-0.30;74.38;97875.91;5122384;27;20082;-81
2023/02/15 07:05:23;;;;;;;18.83;11.75;;;;;;;-0.30;74.29;97875.91;5126243;27;20051;-79
2023/02/15 07:07:51;;;;;;;17.55;11.38;;;;;;;-0.31;74.30;97875.06;5130891;27;20057;-78
2023/02/15 07:10:20;;;;;;;15.10;10.73;;;;;;;-0.31;74.50;97876.81;5126099;27;20066;-79
2023/02/15 07:12:47;;;;;;;16.10;11.20;;;;;;;-0.27;74.67;97884.25;5125897;27;20139;-79
2023/02/15 07:15:17;;;;;;;20.50;11.30;;;;;;;-0.18;74.71;97872.66;5113356;28;20051;-80
2023/02/15 07:17:45;;;;;;;15.98;11.35;;;;;;;-0.08;74.36;97880.72;5125067;27;20046;-78
2023/02/15 07:20:15;;;;;;;17.38;11.00;;;;;;;0.06;74.63;97877.38;5134523;27;20515;-79
2023/02/15 07:22:43;;;;;;;16.67;10.63;;;;;;;0.26;73.93;97877.06;5133780;28;20054;-80
2023/02/15 07:25:11;;;;;;;18.00;10.98;;;;;;;0.53;73.58;97879.03;5134266;28;20508;-80
2023/02/15 07:27:41;;;;;;;14.13;10.07;;;;;;;1.28;72.48;97879.75;5135485;28;20050;-79
2023/02/15 07:30:10;;;;;;;14.30;9.85;;;;;;;1.99;69.67;97877.97;5134423;27;20075;-80
2023/02/15 07:33:22;;;;;;;15.50;11.07;;;;;;;2.33;68.94;97878.41;5135661;27;20051;-81
2023/02/15 07:35:27;;;;;;;13.90;10.23;;;;;;;3.28;66.34;97870.38;5136072;28;20051;-80
2023/02/15 07:37:55;;;;;;;16.17;10.80;;;;;;;3.53;64.35;97873.84;5133898;28;20047;-79
2023/02/15 07:40:23;;;;;;;16.67;11.80;;;;;;;3.65;64.21;97877.31;5152322;27;20047;-80
2023/02/15 07:42:54;;;;;;;17.48;11.63;;;;;;;4.30;62.29;97873.56;5139120;27;20044;-83
2023/02/15 07:45:22;;;;;;;19.92;11.20;;;;;;;4.40;61.40;97878.91;5129743;28;20507;-79
2023/02/15 07:47:49;;;;;;;14.65;10.80;;;;;;;4.33;62.47;97878.53;5119831;28;20043;-79
2023/02/15 07:50:17;;;;;;;14.02;10.30;;;;;;;4.63;60.83;97880.63;5134228;28;20489;-80
2023/02/15 07:52:46;;;;;;;13.57;10.07;;;;;;;4.36;60.93;97883.47;5117321;28;20040;-84
2023/02/15 07:55:14;;;;;;;15.43;10.90;;;;;;;3.75;62.58;97883.47;5122120;28;20047;-79
2023/02/15 07:57:44;;;;;;;18.05;10.27;;;;;;;3.22;64.39;97886.25;5135183;28;20075;-80
2023/02/15 08:00:16;;;;;;;21.45;13.32;;;;;;;2.82;66.15;97876.03;5132326;28;20428;-79
2023/02/15 08:02:48;;;;;;;26.95;16.48;;;;;;;2.64;66.74;97883.22;5121722;28;20047;-79
2023/02/15 08:05:19;;;;;;;16.85;11.52;;;;;;;2.54;66.90;97874.47;5119364;28;20044;-80
2023/02/15 08:07:46;;;;;;;15.75;10.90;;;;;;;2.44;67.13;97868.25;5133339;27;20130;-80
2023/02/15 08:11:24;;;;;;;16.33;10.48;;;;;;;2.38;67.87;97874.59;5135095;27;20069;-79
2023/02/15 08:13:01;;;;;;;15.85;10.43;;;;;;;2.41;68.08;97869.28;5134764;27;20050;-79
2023/02/15 08:15:31;;;;;;;14.15;10.10;;;;;;;2.46;68.10;97867.22;5123979;27;20051;-80
2023/02/15 08:17:58;;;;;;;14.60;9.88;;;;;;;2.57;67.77;97868.28;5116362;28;20063;-78
2023/02/15 08:20:26;;;;;;;12.63;10.00;;;;;;;2.69;67.89;97862.31;5136910;27;20130;-81
2023/02/15 08:22:54;;;;;;;15.35;10.05;;;;;;;2.81;67.57;97861.50;5137751;27;20039;-80
2023/02/15 08:25:21;;;;;;;14.63;9.93;;;;;;;3.35;67.04;97854.47;5135726;27;20548;-84
2023/02/15 08:27:50;;;;;;;13.18;9.82;;;;;;;4.73;63.37;97855.75;5122414;27;20051;-82
2023/02/15 08:30:18;;;;;;;12.90;9.55;;;;;;;5.63;60.83;97856.75;5123935;27;20051;-83
2023/02/15 08:32:47;;;;;;;13.40;10.30;;;;;;;5.91;59.92;97856.22;5124692;27;20051;-79
2023/02/15 08:35:14;;;;;;;10.75;8.70;;;;;;;6.03;59.06;97862.22;5119378;27;20054;-84
2023/02/15 08:37:42;;;;;;;14.98;9.85;;;;;;;5.95;59.54;97864.59;5130153;27;20119;-80
2023/02/15 08:40:13;;;;;;;13.38;9.43;;;;;;;5.83;59.28;97855.16;5136861;27;20150;-82
2023/02/15 08:42:40;;;;;;;11.52;10.27;;;;;;;5.70;59.68;97856.13;5122726;27;20044;-80
2023/02/15 08:45:09;;;;;;;12.88;9.10;;;;;;;5.58;60.10;97849.34;5135222;27;20055;-81
2023/02/15 08:47:36;;;;;;;12.90;9.40;;;;;;;5.51;60.45;97855.91;5117711;27;20047;-83
2023/02/15 08:50:06;;;;;;;11.55;9.45;;;;;;;5.47;60.29;97849.34;5135416;27;20057;-82
2023/02/15 08:52:34;;;;;;;11.95;9.38;;;;;;;5.52;60.37;97848.03;5135105;27;20047;-79
2023/02/15 08:55:01;;;;;;;13.85;10.18;;;;;;;5.56;60.18;97853.81;5127508;27;20047;-78
2023/02/15 08:57:29;;;;;;;12.40;9.52;;;;;;;5.65;60.59;97853.09;5132070;27;20423;-77
2023/02/15 08:59:56;;;;;;;11.68;9.43;;;;;;;5.77;60.48;97852.13;5120110;27;20126;-80
2023/02/15 09:02:24;;;;;;;12.77;10.00;;;;;;;5.87;60.22;97851.41;5133712;27;20044;-80
2023/02/15 09:04:52;;;;;;;14.27;10.30;;;;;;;5.97;59.73;97847.19;5130230;27;20051;-80
2023/02/15 09:07:21;;;;;;;12.88;10.20;;;;;;;6.09;59.77;97856.53;5135356;27;20057;-80
2023/02/15 09:09:49;;;;;;;12.35;9.77;;;;;;;6.22;59.44;97850.38;5127039;27;20082;-79
2023/02/15 09:12:16;;;;;;;12.20;9.85;;;;;;;6.37;59.11;97854.34;5135796;27;20047;-84
2023/02/15 09:14:44;;;;;;;14.85;10.20;;;;;;;6.56;59.47;97849.28;5134671;27;20424;-80
2023/02/15 09:17:11;;;;;;;13.15;10.43;;;;;;;6.76;58.80;97849.44;5128946;27;20055;-79
2023/02/15 09:19:42;;;;;;;12.55;9.70;;;;;;;6.93;58.62;97846.25;5114568;27;20052;-78
2023/02/15 09:22:09;;;;;;;13.70;9.93;;;;;;;7.11;57.66;97850.84;5131214;27;20532;-79
2023/02/15 09:24:38;;;;;;;14.43;10.85;;;;;;;7.22;57.20;97848.19;5134977;27;20047;-80
2023/02/15 09:27:06;;;;;;;13.63;10.98;;;;;;;7.32;56.63;97843.81;5131381;27;20039;-78
2023/02/15 09:29:33;;;;;;;14.13;10.25;;;;;;;7.39;56.62;97839.78;5135518;27;20053;-80
2023/02/15 09:32:01;;;;;;;11.40;9.77;;;;;;;7.49;56.76;97834.59;5126809;27;20043;-82
2023/02/15 09:34:29;;;;;;;12.00;10.25;;;;;;;7.59;56.47;97834.66;5135495;27;20047;-79
2023/02/15 09:36:57;;;;;;;11.90;10.23;;;;;;;7.69;56.55;97838.06;5134513;27;20043;-78
2023/02/15 09:39:26;;;;;;;11.63;9.73;;;;;;;7.80;56.53;97840.56;5132955;27;20051;-81
2023/02/15 09:42:27;;;;;;;10.15;8.73;;;;;;;7.95;55.80;97838.41;5136047;27;20043;-83
2023/02/15 09:45:21;;;;;;;11.68;9.23;;;;;;;8.09;55.27;97839.81;5133866;27;20519;-78
2023/02/15 09:48:16;;;;;;;12.02;10.15;;;;;;;8.25;54.86;97844.47;5119404;27;20516;-79
2023/02/15 09:50:55;;;;;;;12.50;9.90;;;;;;;8.38;55.10;97849.38;5118279;27;20047;-80
2023/02/15 09:53:41;;;;;;;13.13;10.32;;;;;;;8.56;54.49;97841.75;5116711;27;20052;-78
2023/02/15 09:56:16;;;;;;;12.43;10.52;;;;;;;8.75;54.61;97846.13;5132779;27;20132;-78
2023/02/15 09:58:54;;;;;;;12.82;9.77;;;;;;;8.94;54.04;97845.22;5118208;27;20425;-78
2023/02/15 10:01:34;;;;;;;11.13;9.35;;;;;;;9.11;53.59;97851.50;5126460;27;20059;-82
2023/02/15 10:04:17;;;;;;;12.07;10.07;;;;;;;9.29;53.33;97849.78;5135940;27;20131;-77
2023/02/15 10:07:01;;;;;;;12.32;9.90;;;;;;;9.47;53.20;97845.47;5126568;27;20047;-77
2023/02/15 10:09:41;;;;;;;11.30;9.93;;;;;;;9.66;52.57;97851.53;5132715;27;20051;-77
2023/02/15 10:12:21;;;;;;;12.30;10.50;;;;;;;9.79;52.53;97846.81;5127171;27;20083;-80
2023/02/15 10:15:04;;;;;;;11.07;9.30;;;;;;;9.95;51.75;97847.94;5121379;27;20047;-78
2023/02/15 10:17:41;;;;;;;;;;;;;;;10.14;53.09;97840.00;5133534;27;20078;-77
2023/02/15 10:20:22;;;;;;;11.73;10.15;;;;;;;10.30;51.25;97834.16;5121920;27;20301;-77
2023/02/15 10:23:07;;;;;;;15.07;10.80;;;;;;;10.46;50.97;97839.50;5114831;28;20048;-78
2023/02/15 10:25:42;;;;;;;17.60;11.35;;;;;;;10.68;50.63;97833.00;5134024;27;20126;-77
2023/02/15 10:28:17;;;;;;;13.32;11.25;;;;;;;10.88;50.28;97832.81;5134023;27;20055;-79
2023/02/15 10:30:49;;;;;;;15.73;11.80;;;;;;;11.04;50.48;97827.69;5130516;27;20057;-78
2023/02/15 10:33:29;;;;;;;13.48;11.07;;;;;;;11.22;50.16;97825.03;5136658;27;20043;-79
2023/02/15 10:36:07;;;;;;;12.45;10.00;;;;;;;11.41;50.04;97818.72;5126357;27;20058;-77
2023/02/15 10:38:41;;;;;;;13.35;10.45;;;;;;;11.63;49.82;97816.53;5132804;27;20047;-77
2023/02/15 10:41:23;;;;;;;13.82;9.90;;;;;;;11.84;48.78;97819.53;5125585;27;20071;-76
2023/02/15 10:44:06;;;;;;;14.50;10.52;;;;;;;12.04;48.28;97814.84;5128887;27;20065;-78
2023/02/15 10:46:56;;;;;;;10.20;9.10;;;;;;;12.30;48.91;97811.28;5117584;27;20044;-77
2023/02/15 10:49:36;;;;;;;11.75;10.43;;;;;;;12.51;48.00;97810.81;5132808;27;20054;-78
2023/02/15 10:52:21;;;;;;;13.27;10.55;;;;;;;12.72;47.18;97810.31;5119232;27;20052;-77
2023/02/15 10:55:02;;;;;;;13.32;10.38;;;;;;;12.90;46.65;97799.63;5125493;27;20142;-77
2023/02/15 10:57:41;;;;;;;14.02;10.50;;;;;;;13.07;46.61;97801.22;5134940;27;20062;-79
2023/02/15 11:00:18;;;;;;;11.23;9.00;;;;;;;13.28;45.72;97807.72;5119675;27;20039;-81
2023/02/15 11:03:00;;;;;;;11.43;9.70;;;;;;;13.42;45.35;97793.94;5137793;27;20043;-80
2023/02/15 11:05:39;;;;;;;13.98;9.70;;;;;;;13.60;45.60;97796.34;5126495;27;20055;-79
2023/02/15 11:08:10;;;;;;;12.00;10.70;;;;;;;13.73;45.41;97796.59;5132922;27;20065;-79
2023/02/15 11:10:42;;;;;;;12.40;10.00;;;;;;;13.95;44.87;97797.63;5127874;27;20501;-77
2023/02/15 11:13:15;;;;;;;12.93;9.57;;;;;;;14.14;44.26;97779.75;5118456;27;20495;-78
2023/02/15 11:15:48;;;;;;;14.57;10.80;;;;;;;14.29;43.99;97766.69;5124342;27;20047;-76
2023/02/15 11:18:24;;;;;;;15.88;12.27;;;;;;;14.45;43.31;97778.88;5136157;27;20047;-77
2023/02/15 11:20:57;;;;;;;9.95;8.25;;;;;;;14.66;42.85;97768.53;5135031;27;20200;-77
2023/02/15 11:23:27;;;;;;;11.10;9.32;;;;;;;14.84;42.95;97768.19;5135617;28;20523;-77
2023/02/15 11:25:58;;;;;;;14.10;9.90;;;;;;;15.00;41.81;97768.03;5117933;28;20079;-76
2023/02/15 11:28:32;;;;;;;12.98;9.77;;;;;;;15.14;41.63;97771.66;5137698;28;20051;-77
2023/02/15 11:31:03;;;;;;;11.75;9.80;;;;;;;15.22;41.59;97765.50;5123342;28;20138;-76
2023/02/15 11:33:39;;;;;;;12.73;9.35;;;;;;;15.35;41.13;97767.44;5133289;28;20043;-76
2023/02/15 11:36:16;;;;;;;12.45;9.27;;;;;;;15.49;41.90;97771.06;5131528;28;20089;-86
2023/02/15 11:38:45;;;;;;;10.63;9.52;;;;;;;15.57;41.24;97768.34;5120913;28;20082;-78
2023/02/15 11:41:19;;;;;;;17.02;13.10;;;;;;;15.74;40.16;97759.28;5127587;28;20050;-78
2023/02/15 11:43:54;;;;;;;13.32;10.05;;;;;;;15.84;40.17;97758.94;5126551;27;20047;-76
2023/02/15 11:46:21;;;;;;;11.48;10.02;;;;;;;15.80;40.45;97752.44;5129610;27;20401;-78
2023/02/15 11:48:50;;;;;;;14.52;10.60;;;;;;;15.76;40.09;97756.44;5139664;27;20151;-78
2023/02/15 11:51:20;;;;;;;13.73;10.10;;;;;;;15.69;40.33;97750.25;5139136;27;20055;-76
2023/02/15 11:53:50;;;;;;;14.48;10.88;;;;;;;15.53;40.47;97757.38;5126104;27;20058;-77
2023/02/15 11:56:20;;;;;;;12.90;10.18;;;;;;;15.40;40.80;97757.22;5126565;27;20115;-78
2023/02/15 11:58:53;;;;;;;12.57;10.68;;;;;;;15.31;40.65;97758.31;5136129;27;20043;-78
2023/02/15 12:01:28;;;;;;;17.13;12.32;;;;;;;15.31;40.43;97747.81;5130024;27;20044;-78
2023/02/15 12:03:59;;;;;;;12.77;10.52;;;;;;;15.30;40.99;97749.59;5125591;27;20092;-77
2023/02/15 12:06:29;;;;;;;14.95;11.93;;;;;;;15.32;40.78;97750.22;5139304;27;20131;-80
2023/02/15 12:09:06;;;;;;;12.82;10.85;;;;;;;15.40;40.46;97742.25;5129311;27;20128;-76